createdAt,value
2019-04-03T00:01:27.726Z,101378.50
2019-04-03T00:06:33.725Z,101371.20
2019-04-03T00:11:40.862Z,101362.79
2019-04-03T00:16:46.200Z,101361.39
2019-04-03T00:21:51.534Z,101357.38
2019-04-03T00:26:57.071Z,101356.19
2019-04-03T00:32:02.559Z,101337.64
2019-04-03T00:37:07.955Z,101341.43
2019-04-03T00:42:13.468Z,101332.56
2019-04-03T00:47:19.136Z,101329.34
2019-04-03T00:52:27.205Z,101332.20
2019-04-03T00:57:32.305Z,101322.13
2019-04-03T01:02:37.468Z,101324.66
2019-04-03T01:07:44.067Z,101309.88
2019-04-03T01:12:49.921Z,101308.88
2019-04-03T01:17:55.621Z,101308.66
2019-04-03T01:23:01.355Z,101301.34
2019-04-03T01:28:06.738Z,101299.69
2019-04-03T01:33:13.305Z,101295.80
2019-04-03T01:38:19.825Z,101293.88
2019-04-03T01:43:25.596Z,101290.89
2019-04-03T01:48:31.118Z,101290.33
2019-04-03T01:53:36.505Z,101281.81
2019-04-03T01:58:42.257Z,101274.61
2019-04-03T02:03:47.921Z,101283.25
2019-04-03T02:08:53.270Z,101274.81
2019-04-03T02:13:59.100Z,101265.98
2019-04-03T02:19:04.957Z,101252.73
2019-04-03T02:24:10.270Z,101252.50
2019-04-03T02:29:16.029Z,101247.98
2019-04-03T02:34:22.440Z,101251.48
2019-04-03T02:39:28.327Z,101250.02
2019-04-03T02:44:34.859Z,101236.77
2019-04-03T02:49:42.780Z,101235.74
2019-04-03T02:54:49.197Z,101227.94
2019-04-03T02:59:58.184Z,101223.66
2019-04-03T03:05:02.264Z,101230.56
2019-04-03T03:10:08.656Z,101227.34
2019-04-03T03:15:13.995Z,101227.58
2019-04-03T03:20:22.432Z,101222.89
2019-04-03T03:25:32.357Z,101226.87
2019-04-03T03:30:45.225Z,101210.78
2019-04-03T03:35:47.399Z,101208.86
2019-04-03T03:40:54.093Z,101196.91
2019-04-03T03:45:59.972Z,101198.93
2019-04-03T03:51:06.876Z,101199.13
2019-04-03T03:56:13.116Z,101209.73
2019-04-03T04:01:19.524Z,101197.36
2019-04-03T04:06:27.924Z,101202.47
2019-04-03T04:11:32.540Z,101203.85
2019-04-03T04:16:38.387Z,101199.97
2019-04-03T04:21:45.211Z,101192.54
2019-04-03T04:26:51.167Z,101200.14
2019-04-03T04:31:56.511Z,101197.80
2019-04-03T04:37:03.108Z,101207.81
2019-04-03T04:42:08.521Z,101198.80
2019-04-03T04:47:15.114Z,101196.34
2019-04-03T04:52:21.228Z,101198.13
2019-04-03T04:57:26.602Z,101189.54
2019-04-03T05:02:32.621Z,101200.45
2019-04-03T05:07:38.040Z,101200.66
2019-04-03T05:12:45.314Z,101200.26
2019-04-03T05:17:50.720Z,101198.91
2019-04-03T05:22:56.435Z,101195.11
2019-04-03T05:28:04.195Z,101194.51
2019-04-03T05:33:11.177Z,101193.55
2019-04-03T05:38:16.725Z,101185.44
2019-04-03T05:43:22.430Z,101198.16
2019-04-03T05:48:28.141Z,101200.64
2019-04-03T05:53:36.617Z,101200.77
2019-04-03T05:58:53.730Z,101205.45
2019-04-03T06:03:48.188Z,101206.42
2019-04-03T06:08:56.343Z,101193.63
2019-04-03T06:14:00.702Z,101193.23
2019-04-03T06:19:06.976Z,101187.22
2019-04-03T06:24:12.867Z,101182.07
2019-04-03T06:29:18.940Z,101186.51
2019-04-03T06:34:24.993Z,101180.02
2019-04-03T06:39:31.848Z,101179.83
2019-04-03T06:44:37.621Z,101172.37
2019-04-03T06:49:43.299Z,101170.19
2019-04-03T06:54:48.648Z,101176.23
2019-04-03T06:59:54.409Z,101166.25
2019-04-03T07:05:02.426Z,101157.54
2019-04-03T07:10:09.460Z,101171.22
2019-04-03T07:15:15.411Z,101159.28
2019-04-03T07:20:20.972Z,101169.60
2019-04-03T07:25:26.916Z,101167.19
2019-04-03T07:30:32.638Z,101164.55
2019-04-03T07:35:40.439Z,101163.80
2019-04-03T07:40:45.392Z,101174.64
2019-04-03T07:45:50.947Z,101160.52
2019-04-03T07:50:56.402Z,101160.91
2019-04-03T07:56:01.756Z,101162.36
2019-04-03T08:01:09.551Z,101158.88
2019-04-03T08:06:14.633Z,101155.81
2019-04-03T08:11:20.093Z,101163.14
2019-04-03T08:16:25.448Z,101167.53
2019-04-03T08:21:31.030Z,101162.59
2019-04-03T08:26:36.381Z,101167.06
2019-04-03T08:31:43.675Z,101158.45
2019-04-03T08:36:49.257Z,101167.66
2019-04-03T08:41:56.092Z,101169.15
2019-04-03T08:47:01.656Z,101169.70
2019-04-03T08:52:07.111Z,101165.44
2019-04-03T08:57:12.616Z,101167.17
2019-04-03T09:02:18.355Z,101169.45
2019-04-03T09:07:24.909Z,101157.69
2019-04-03T09:12:30.855Z,101160.00
2019-04-03T09:17:36.681Z,101159.72
2019-04-03T09:22:41.820Z,101163.00
2019-04-03T09:27:47.748Z,101150.30
2019-04-03T09:32:53.644Z,101154.51
2019-04-03T09:38:00.127Z,101148.94
2019-04-03T09:43:05.800Z,101147.25
2019-04-03T09:48:12.397Z,101154.17
2019-04-03T09:53:18.360Z,101149.08
2019-04-03T09:58:23.891Z,101150.38
2019-04-03T10:03:31.269Z,101140.64
2019-04-03T10:08:38.098Z,101142.36
2019-04-03T10:13:44.065Z,101138.45
2019-04-03T10:18:49.502Z,101132.03
2019-04-03T10:23:54.693Z,101114.86
2019-04-03T10:29:00.345Z,101123.62
2019-04-03T10:34:06.104Z,101116.54
2019-04-03T10:39:12.456Z,101108.83
2019-04-03T10:44:18.249Z,101103.90
2019-04-03T10:49:23.831Z,101099.59
2019-04-03T10:54:29.369Z,101091.59
2019-04-03T10:59:35.466Z,101074.25
2019-04-03T11:04:41.232Z,101082.67
2019-04-03T11:09:46.688Z,101066.12
2019-04-03T11:14:52.185Z,101067.55
2019-04-03T11:19:57.615Z,101064.08
2019-04-03T11:25:03.111Z,101051.61
2019-04-03T11:30:14.239Z,101058.19
2019-04-03T11:35:21.726Z,101052.65
2019-04-03T11:40:26.294Z,101047.91
2019-04-03T11:45:31.592Z,101040.80
2019-04-03T11:50:39.446Z,101045.67
2019-04-03T11:55:44.479Z,101033.83
2019-04-03T12:00:51.557Z,101033.97
2019-04-03T12:05:57.422Z,101020.41
2019-04-03T12:11:05.319Z,101023.93
2019-04-03T12:16:10.697Z,101020.03
2019-04-03T12:21:18.227Z,101021.81
2019-04-03T12:26:23.255Z,101003.39
2019-04-03T12:31:28.824Z,101003.40
2019-04-03T12:36:34.692Z,100998.59
2019-04-03T12:41:42.816Z,101003.44
2019-04-03T12:46:47.141Z,100992.45
2019-04-03T12:51:52.825Z,100987.57
2019-04-03T12:57:00.260Z,100982.27
2019-04-03T13:02:06.079Z,100981.43
2019-04-03T13:07:13.753Z,100966.92
2019-04-03T13:12:22.060Z,100969.06
2019-04-03T13:17:26.817Z,100965.63
2019-04-03T13:22:32.428Z,100958.47
2019-04-03T13:27:38.421Z,100950.96
2019-04-03T13:32:56.770Z,100949.76
2019-04-03T13:37:54.373Z,100945.45
2019-04-03T13:42:58.558Z,100944.45
2019-04-03T13:48:05.446Z,100949.05
2019-04-03T13:53:11.455Z,100937.80
2019-04-03T13:58:17.086Z,100930.88
2019-04-03T14:03:22.455Z,100921.67
2019-04-03T14:08:27.952Z,100919.08
2019-04-03T14:13:33.506Z,100918.89
2019-04-03T14:18:40.664Z,100909.35
2019-04-03T14:23:46.474Z,100921.19
2019-04-03T14:28:52.275Z,100917.53
2019-04-03T14:33:58.460Z,100920.48
2019-04-03T14:39:09.073Z,100912.33
2019-04-03T14:44:14.934Z,100904.68
2019-04-03T14:49:20.269Z,100901.67
2019-04-03T14:54:25.907Z,100899.27
2019-04-03T14:59:34.592Z,100895.55
2019-04-03T15:04:38.690Z,100892.73
2019-04-03T15:09:44.231Z,100890.47
2019-04-03T15:14:49.692Z,100886.31
2019-04-03T15:19:57.083Z,100888.55
2019-04-03T15:25:03.041Z,100889.53
2019-04-03T15:30:12.012Z,100890.20
2019-04-03T15:35:17.322Z,100880.39
2019-04-03T15:40:25.217Z,100880.31
2019-04-03T15:45:29.838Z,100877.11
2019-04-03T15:50:37.948Z,100880.00
2019-04-03T15:55:42.613Z,100887.00
2019-04-03T16:00:48.347Z,100892.61
2019-04-03T16:05:54.263Z,100896.64
2019-04-03T16:10:59.772Z,100893.13
2019-04-03T16:16:06.079Z,100900.55
2019-04-03T16:21:11.907Z,100899.61
2019-04-03T16:26:18.232Z,100904.31
2019-04-03T16:31:23.972Z,100902.06
2019-04-03T16:36:29.555Z,100895.34
2019-04-03T16:41:37.669Z,100891.79
2019-04-03T16:46:42.221Z,100894.23
2019-04-03T16:51:47.818Z,100906.43
2019-04-03T16:56:53.597Z,100898.89
2019-04-03T17:01:59.001Z,100911.77
2019-04-03T17:07:05.474Z,100905.95
2019-04-03T17:12:11.196Z,100903.07
2019-04-03T17:17:16.647Z,100911.67
2019-04-03T17:22:22.229Z,100911.39
2019-04-03T17:27:30.190Z,100921.20
2019-04-03T17:32:35.410Z,100929.72
2019-04-03T17:37:41.134Z,100923.48
2019-04-03T17:42:46.798Z,100943.73
2019-04-03T17:47:53.868Z,100946.66
2019-04-03T17:52:59.465Z,100951.25
2019-04-03T17:58:05.740Z,100954.47
2019-04-03T18:03:11.331Z,100951.14
2019-04-03T18:08:16.550Z,100955.77
2019-04-03T18:13:23.433Z,100956.95
2019-04-03T18:18:29.432Z,100964.65
2019-04-03T18:23:35.357Z,100965.94
2019-04-03T18:28:40.723Z,100966.27
2019-04-03T18:33:46.803Z,100961.06
2019-04-03T18:38:53.279Z,100963.89
2019-04-03T18:43:58.617Z,100968.09
2019-04-03T18:49:04.756Z,100972.27
2019-04-03T18:54:11.576Z,100966.48
2019-04-03T18:59:17.449Z,100965.52
2019-04-03T19:04:22.861Z,100963.69
2019-04-03T19:09:28.274Z,100966.02
2019-04-03T19:14:33.927Z,100966.64
2019-04-03T19:19:42.574Z,100966.05
2019-04-03T19:24:48.102Z,100967.84
2019-04-03T19:29:53.798Z,100964.95
2019-04-03T19:34:59.189Z,100968.64
2019-04-03T19:40:08.987Z,100964.48
2019-04-03T19:45:13.871Z,100962.06
2019-04-03T19:50:19.498Z,100965.80
2019-04-03T19:55:25.308Z,100963.78
2019-04-03T20:00:30.684Z,100957.97
2019-04-03T20:05:36.051Z,100959.98
2019-04-03T20:10:41.461Z,100968.27
2019-04-03T20:15:47.016Z,100965.50
2019-04-03T20:20:52.383Z,100957.19
2019-04-03T20:25:57.633Z,100961.23
2019-04-03T20:31:03.817Z,100959.28
2019-04-03T20:36:09.981Z,100955.52
2019-04-03T20:41:15.347Z,100952.81
2019-04-03T20:46:22.070Z,100945.86
2019-04-03T20:51:28.525Z,100942.16
2019-04-03T20:56:34.310Z,100939.34
2019-04-03T21:01:40.325Z,100950.08
2019-04-03T21:06:46.293Z,100950.31
2019-04-03T21:11:51.798Z,100948.16
2019-04-03T21:16:57.049Z,100948.45
2019-04-03T21:22:02.517Z,100943.82
2019-04-03T21:27:08.866Z,100946.17
2019-04-03T21:32:14.883Z,100942.23
2019-04-03T21:37:20.161Z,100933.11
2019-04-03T21:42:26.975Z,100944.09
2019-04-03T21:47:32.582Z,100934.36
2019-04-03T21:52:37.782Z,100925.13
2019-04-03T21:57:43.116Z,100930.16
2019-04-03T22:02:49.846Z,100929.03
2019-04-03T22:07:58.267Z,100930.78
2019-04-03T22:13:05.843Z,100928.41
2019-04-03T22:18:12.689Z,100923.41
2019-04-03T22:23:18.306Z,100932.78
2019-04-03T22:28:24.016Z,100924.89
2019-04-03T22:33:29.403Z,100923.52
2019-04-03T22:38:36.868Z,100912.37
2019-04-03T22:43:41.861Z,100919.33
2019-04-03T22:48:47.309Z,100912.06
2019-04-03T22:53:53.103Z,100906.95
2019-04-03T22:58:58.357Z,100906.52
2019-04-03T23:04:05.213Z,100899.77
2019-04-03T23:09:10.597Z,100901.55
2019-04-03T23:14:15.884Z,100892.14
2019-04-03T23:19:21.468Z,100888.20
2019-04-03T23:24:28.826Z,100882.39
2019-04-03T23:29:35.946Z,100878.05
2019-04-03T23:34:40.983Z,100870.61
2019-04-03T23:39:46.476Z,100861.95
2019-04-03T23:44:51.856Z,100861.47
2019-04-03T23:49:57.149Z,100867.89
2019-04-03T23:55:04.574Z,100859.63
